Moelfre, United Kingdom
Current Conditions -  °F | °C
As of 3:50 AM on Friday 28 Nov 2014 (Local Time) from EGOV Reporting Station
Clear Clear  
Wind Chill: 42°   Ceiling: Unl
Heat Index: 46°   Visibility: 6mi
Dew Point: 41°   Wind: 8mph
Humidity: 81%   Direction: 60°ENE
Pressure: 29.53"   Gusts: NA
Location:  53.34°N, 4.25°W
Report Text: EGOV 280350Z 06007KT CAVOK 08/05 Q1000 BLU
Loading
Personal Weather Stations






























Interactive Weather Map New forecast layout! Learn more

10-Day Weather Forecast

Advertisements
Track Severe Weather on mobile